createdAt,value
2022-12-23T00:01:23.143Z,99629.13
2022-12-23T00:03:50.016Z,99621.13
2022-12-23T00:06:17.319Z,99621.91
2022-12-23T00:08:44.039Z,99627.94
2022-12-23T00:11:14.761Z,99626.72
2022-12-23T00:13:59.663Z,99617.94
2022-12-23T00:16:26.212Z,99629.56
2022-12-23T00:18:53.458Z,99629.16
2022-12-23T00:21:19.971Z,99625.94
2022-12-23T00:23:48.781Z,99631.53
2022-12-23T00:26:23.246Z,99639.56
2022-12-23T00:28:50.435Z,99632.38
2022-12-23T00:31:18.720Z,99635.16
2022-12-23T00:33:48.018Z,99631.16
2022-12-23T00:36:35.345Z,99632.38
2022-12-23T00:39:20.143Z,99624.78
2022-12-23T00:42:05.324Z,99626.00
2022-12-23T00:44:32.339Z,99621.59
2022-12-23T00:46:58.838Z,99626.81
2022-12-23T00:49:43.510Z,99627.63
2022-12-23T00:52:15.799Z,99634.81
2022-12-23T00:54:42.351Z,99640.00
2022-12-23T00:57:08.728Z,99638.00
2022-12-23T00:59:35.421Z,99627.59
2022-12-23T01:02:20.918Z,99613.63
2022-12-23T01:05:06.040Z,99620.44
2022-12-23T01:07:32.374Z,99618.44
2022-12-23T01:09:58.887Z,99625.22
2022-12-23T01:12:25.343Z,99631.63
2022-12-23T01:14:51.750Z,99637.22
2022-12-23T01:17:18.120Z,99633.63
2022-12-23T01:19:44.453Z,99637.22
2022-12-23T01:22:10.966Z,99637.22
2022-12-23T01:24:37.298Z,99636.81
2022-12-23T01:27:03.688Z,99643.22
2022-12-23T01:29:30.086Z,99627.63
2022-12-23T01:31:56.742Z,99640.81
2022-12-23T01:34:23.320Z,99642.41
2022-12-23T01:36:49.670Z,99640.41
2022-12-23T01:39:16.095Z,99651.59
2022-12-23T01:42:01.249Z,99654.41
2022-12-23T01:44:49.054Z,99660.00
2022-12-23T01:47:27.800Z,99661.59
2022-12-23T01:50:11.618Z,99659.59
2022-12-23T01:52:45.349Z,99662.81
2022-12-23T01:55:14.522Z,99665.19
2022-12-23T01:57:42.869Z,99667.19
2022-12-23T02:00:28.913Z,99674.38
2022-12-23T02:03:13.969Z,99673.53
2022-12-23T02:05:42.019Z,99667.16
2022-12-23T02:08:26.992Z,99664.75
2022-12-23T02:11:29.837Z,99671.13
2022-12-23T02:14:30.424Z,99682.75
2022-12-23T02:17:22.883Z,99678.72
2022-12-23T02:19:55.356Z,99680.69
2022-12-23T02:22:55.417Z,99681.88
2022-12-23T02:25:31.361Z,99693.06
2022-12-23T02:28:11.448Z,99681.47
2022-12-23T02:30:48.267Z,99695.06
2022-12-23T02:33:17.365Z,99692.25
2022-12-23T02:36:17.716Z,99695.84
2022-12-23T02:38:53.134Z,99693.84
2022-12-23T02:41:28.494Z,99696.66
2022-12-23T02:44:01.807Z,99692.66
2022-12-23T02:46:38.439Z,99702.25
2022-12-23T02:49:10.862Z,99699.44
2022-12-23T02:51:44.211Z,99711.03
2022-12-23T02:54:15.204Z,99713.84
2022-12-23T02:56:46.202Z,99714.22
2022-12-23T02:59:20.502Z,99715.00
2022-12-23T03:01:48.596Z,99720.59
2022-12-23T03:04:15.532Z,99718.19
2022-12-23T03:06:44.702Z,99717.78
2022-12-23T03:09:20.351Z,99726.94
2022-12-23T03:12:17.216Z,99734.13
2022-12-23T03:14:59.272Z,99728.53
2022-12-23T03:17:31.753Z,99730.13
2022-12-23T03:20:46.541Z,99732.13
2022-12-23T03:23:25.173Z,99747.31
2022-12-23T03:26:07.315Z,99740.94
2022-12-23T03:28:47.637Z,99745.75
2022-12-23T03:31:22.707Z,99741.75
2022-12-23T03:33:54.754Z,99749.75
2022-12-23T03:36:29.112Z,99750.53
2022-12-23T03:38:57.012Z,99747.38
2022-12-23T03:41:30.649Z,99759.75
2022-12-23T03:44:06.557Z,99759.75
2022-12-23T03:47:08.239Z,99765.34
2022-12-23T03:49:42.860Z,99766.94
2022-12-23T03:52:20.800Z,99775.34
2022-12-23T03:54:57.810Z,99776.94
2022-12-23T03:57:37.156Z,99768.53
2022-12-23T04:00:04.598Z,99774.13
2022-12-23T04:02:41.288Z,99774.13
2022-12-23T04:05:37.496Z,99785.31
2022-12-23T04:08:22.634Z,99770.56
2022-12-23T04:10:49.782Z,99770.94
2022-12-23T04:13:16.340Z,99770.94
2022-12-23T04:15:43.516Z,99780.97
2022-12-23T04:18:11.402Z,99768.16
2022-12-23T04:20:38.122Z,99776.16
2022-12-23T04:23:04.884Z,99762.19
2022-12-23T04:25:31.200Z,99774.97
2022-12-23T04:27:57.545Z,99773.78
2022-12-23T04:30:29.533Z,99773.78
2022-12-23T04:33:01.178Z,99772.56
2022-12-23T04:35:27.679Z,99772.56
2022-12-23T04:37:53.990Z,99772.56
2022-12-23T04:40:20.336Z,99778.16
2022-12-23T04:42:46.881Z,99778.16
2022-12-23T04:45:13.184Z,99776.16
2022-12-23T04:47:40.763Z,99776.16
2022-12-23T04:50:08.155Z,99783.75
2022-12-23T04:52:34.512Z,99776.16
2022-12-23T04:55:00.817Z,99775.78
2022-12-23T04:57:27.339Z,99777.78
2022-12-23T04:59:53.737Z,99784.56
2022-12-23T05:02:20.215Z,99786.16
2022-12-23T05:04:46.652Z,99786.56
2022-12-23T05:07:13.036Z,99792.94
2022-12-23T05:09:39.403Z,99802.94
2022-12-23T05:12:06.016Z,99794.94
2022-12-23T05:14:32.552Z,99795.75
2022-12-23T05:17:05.212Z,99802.94
2022-12-23T05:19:33.607Z,99797.75
2022-12-23T05:22:00.069Z,99799.34
2022-12-23T05:24:26.583Z,99796.16
2022-12-23T05:26:59.784Z,99806.53
2022-12-23T05:29:27.156Z,99805.34
2022-12-23T05:31:53.647Z,99807.34
2022-12-23T05:34:20.158Z,99808.13
2022-12-23T05:36:46.483Z,99796.16
2022-12-23T05:39:13.304Z,99801.75
2022-12-23T05:41:39.660Z,99800.53
2022-12-23T05:44:06.068Z,99799.75
2022-12-23T05:46:32.457Z,99800.53
2022-12-23T05:48:59.195Z,99797.75
2022-12-23T05:51:25.755Z,99803.34
2022-12-23T05:53:52.066Z,99794.94
2022-12-23T05:56:18.838Z,99796.94
2022-12-23T05:58:45.182Z,99802.16
2022-12-23T06:01:11.575Z,99807.75
2022-12-23T06:03:38.366Z,99811.38
2022-12-23T06:06:05.396Z,99820.56
2022-12-23T06:08:31.917Z,99816.97
2022-12-23T06:10:59.997Z,99817.75
2022-12-23T06:13:26.740Z,99825.34
2022-12-23T06:15:53.731Z,99812.16
2022-12-23T06:18:20.251Z,99832.91
2022-12-23T06:20:47.743Z,99836.53
2022-12-23T06:23:14.401Z,99837.72
2022-12-23T06:25:40.972Z,99847.28
2022-12-23T06:28:07.962Z,99846.50
2022-12-23T06:30:34.713Z,99845.69
2022-12-23T06:33:01.378Z,99850.50
2022-12-23T06:35:27.712Z,99842.09
2022-12-23T06:37:54.295Z,99850.50
2022-12-23T06:40:20.851Z,99841.31
2022-12-23T06:42:47.593Z,99844.47
2022-12-23T06:45:15.396Z,99836.06
2022-12-23T06:47:42.005Z,99844.06
2022-12-23T06:50:09.090Z,99848.06
2022-12-23T06:52:35.599Z,99845.63
2022-12-23T06:55:01.971Z,99849.63
2022-12-23T06:57:28.350Z,99848.03
2022-12-23T06:59:55.056Z,99846.41
2022-12-23T07:02:21.433Z,99847.22
2022-12-23T07:04:48.081Z,99852.00
2022-12-23T07:07:14.572Z,99852.41
2022-12-23T07:09:40.969Z,99848.03
2022-12-23T07:12:07.503Z,99849.63
2022-12-23T07:14:33.896Z,99861.59
2022-12-23T07:17:00.323Z,99856.81
2022-12-23T07:19:26.679Z,99859.59
2022-12-23T07:21:53.308Z,99862.03
2022-12-23T07:24:19.729Z,99863.25
2022-12-23T07:26:46.243Z,99866.84
2022-12-23T07:29:12.776Z,99868.47
2022-12-23T07:31:41.097Z,99867.28
2022-12-23T07:34:07.939Z,99874.06
2022-12-23T07:36:34.312Z,99881.31
2022-12-23T07:39:01.753Z,99887.69
2022-12-23T07:41:28.398Z,99888.91
2022-12-23T07:43:54.907Z,99897.69
2022-12-23T07:46:21.395Z,99914.47
2022-12-23T07:48:47.905Z,99922.84
2022-12-23T07:51:14.616Z,99914.88
2022-12-23T07:53:41.134Z,99925.22
2022-12-23T07:56:08.747Z,99930.00
2022-12-23T07:58:35.495Z,99927.63
2022-12-23T08:01:07.864Z,99933.97
2022-12-23T08:03:35.145Z,99932.81
2022-12-23T08:06:12.334Z,99929.56
2022-12-23T08:08:39.598Z,99935.16
2022-12-23T08:11:08.716Z,99924.38
2022-12-23T08:13:38.352Z,99922.78
2022-12-23T08:16:06.131Z,99927.16
2022-12-23T08:18:34.969Z,99918.34
2022-12-23T08:21:07.673Z,99918.78
2022-12-23T08:23:34.651Z,99915.19
2022-12-23T08:26:07.471Z,99906.78
2022-12-23T08:28:35.387Z,99904.78
2022-12-23T08:31:07.270Z,99905.59
2022-12-23T08:33:35.010Z,99913.59
2022-12-23T08:36:01.321Z,99908.78
2022-12-23T08:38:27.796Z,99925.56
2022-12-23T08:40:54.307Z,99928.38
2022-12-23T08:43:20.793Z,99931.56
2022-12-23T08:45:47.361Z,99930.38
2022-12-23T08:48:13.989Z,99923.59
2022-12-23T08:50:42.479Z,99924.41
2022-12-23T08:53:08.888Z,99911.22
2022-12-23T08:55:43.683Z,99921.97
2022-12-23T08:58:12.058Z,99922.41
2022-12-23T09:00:39.056Z,99922.03
2022-12-23T09:03:05.947Z,99921.22
2022-12-23T09:05:32.643Z,99920.81
2022-12-23T09:07:59.879Z,99931.22
2022-12-23T09:10:26.734Z,99925.63
2022-12-23T09:12:53.234Z,99924.00
2022-12-23T09:15:19.913Z,99928.81
2022-12-23T09:17:46.316Z,99930.00
2022-12-23T09:20:12.862Z,99920.81
2022-12-23T09:22:41.917Z,99925.97
2022-12-23T09:25:08.669Z,99930.81
2022-12-23T09:27:35.213Z,99918.81
2022-12-23T09:30:01.603Z,99910.03
2022-12-23T09:32:28.500Z,99908.03
2022-12-23T09:34:54.963Z,99908.44
2022-12-23T09:37:21.339Z,99906.47
2022-12-23T09:39:47.730Z,99904.47
2022-12-23T09:42:35.926Z,99900.44
2022-12-23T09:45:21.812Z,99904.88
2022-12-23T09:47:48.912Z,99898.53
2022-12-23T09:50:23.826Z,99896.91
2022-12-23T09:53:08.366Z,99910.50
2022-12-23T09:55:49.201Z,99898.13
2022-12-23T09:58:29.560Z,99907.31
2022-12-23T10:01:22.766Z,99903.31
2022-12-23T10:04:14.120Z,99890.13
2022-12-23T10:06:44.839Z,99882.56
2022-12-23T10:09:15.439Z,99880.59
2022-12-23T10:11:45.860Z,99881.00
2022-12-23T10:14:29.556Z,99868.59
2022-12-23T10:17:00.477Z,99879.41
2022-12-23T10:19:41.946Z,99880.63
2022-12-23T10:22:26.074Z,99879.84
2022-12-23T10:24:55.529Z,99882.28
2022-12-23T10:27:34.039Z,99879.47
2022-12-23T10:30:19.997Z,99879.13
2022-12-23T10:33:36.799Z,99873.13
2022-12-23T10:36:11.316Z,99880.34
2022-12-23T10:39:16.087Z,99879.16
2022-12-23T10:41:51.647Z,99860.75
2022-12-23T10:44:35.937Z,99859.97
2022-12-23T10:47:11.824Z,99851.97
2022-12-23T10:50:00.399Z,99851.16
2022-12-23T10:52:30.474Z,99845.59
2022-12-23T10:55:01.380Z,99827.25
2022-12-23T10:57:29.403Z,99812.47
2022-12-23T10:59:57.012Z,99807.25
2022-12-23T11:02:31.584Z,99796.88
2022-12-23T11:04:59.136Z,99793.66
2022-12-23T11:07:45.738Z,99796.47
2022-12-23T11:10:22.174Z,99800.06
2022-12-23T11:12:51.019Z,99801.69
2022-12-23T11:15:32.056Z,99799.28
2022-12-23T11:18:01.234Z,99800.88
2022-12-23T11:30:19.083Z,99774.94
2022-12-23T11:32:45.528Z,99777.38
2022-12-23T11:36:06.060Z,99771.75
2022-12-23T11:56:22.602Z,99756.13
2022-12-23T11:58:54.094Z,99752.13
2022-12-23T12:01:23.926Z,99750.13
2022-12-23T12:03:55.469Z,99744.91
2022-12-23T12:06:23.472Z,99736.50
2022-12-23T12:08:52.804Z,99728.91
2022-12-23T12:11:25.792Z,99729.72
2022-12-23T12:14:00.199Z,99728.91
2022-12-23T12:16:53.704Z,99716.53
2022-12-23T12:19:26.143Z,99712.56
2022-12-23T12:21:57.817Z,99698.94
2022-12-23T12:24:36.226Z,99700.16
2022-12-23T12:27:07.037Z,99697.75
2022-12-23T12:29:46.432Z,99692.94
2022-12-23T12:32:39.776Z,99695.75
2022-12-23T12:35:12.972Z,99676.94
2022-12-23T12:37:54.187Z,99673.75
2022-12-23T12:40:44.418Z,99660.94
2022-12-23T12:43:31.757Z,99652.56
2022-12-23T12:46:23.131Z,99651.34
2022-12-23T12:48:59.656Z,99646.97
2022-12-23T12:51:40.825Z,99639.75
2022-12-23T12:54:27.426Z,99635.75
2022-12-23T12:56:56.534Z,99630.94
2022-12-23T12:59:33.664Z,99632.56
2022-12-23T13:02:31.985Z,99646.13
2022-12-23T13:04:58.220Z,99634.53
2022-12-23T13:07:40.093Z,99631.75
2022-12-23T13:10:21.658Z,99631.75
2022-12-23T13:13:00.024Z,99626.13
2022-12-23T13:15:42.880Z,99614.97
2022-12-23T13:18:38.584Z,99606.94
2022-12-23T13:21:16.622Z,99593.72
2022-12-23T13:24:04.370Z,99602.13
2022-12-23T13:26:41.185Z,99605.34
2022-12-23T13:29:24.415Z,99594.56
2022-12-23T13:31:57.981Z,99594.56
2022-12-23T13:34:39.922Z,99590.13
2022-12-23T13:37:31.681Z,99584.13
2022-12-23T13:40:12.033Z,99577.34
2022-12-23T13:42:45.319Z,99580.13
2022-12-23T13:45:15.726Z,99579.34
2022-12-23T13:47:58.421Z,99555.75
2022-12-23T13:50:44.170Z,99547.31
2022-12-23T13:53:25.704Z,99532.13
2022-12-23T13:56:10.752Z,99534.53
2022-12-23T13:58:40.152Z,99528.16
2022-12-23T14:01:09.677Z,99527.34
2022-12-23T14:03:38.646Z,99518.56
2022-12-23T14:06:23.417Z,99507.34
2022-12-23T14:08:51.552Z,99502.56
2022-12-23T14:11:26.226Z,99500.16
2022-12-23T14:14:04.586Z,99489.34
2022-12-23T14:16:42.852Z,99485.00
2022-12-23T14:19:18.604Z,99478.56
2022-12-23T14:22:07.289Z,99468.94
2022-12-23T14:24:53.163Z,99462.94
2022-12-23T14:27:44.422Z,99454.56
2022-12-23T14:30:32.077Z,99440.94
2022-12-23T14:33:00.486Z,99428.16
2022-12-23T14:35:46.952Z,99403.41
2022-12-23T14:38:16.677Z,99421.38
2022-12-23T14:40:42.961Z,99416.59
2022-12-23T14:43:56.013Z,99425.38
2022-12-23T14:46:34.414Z,99423.78
2022-12-23T14:49:29.683Z,99411.78
2022-12-23T14:51:50.649Z,99407.41
2022-12-23T14:54:18.994Z,99406.97
2022-12-23T14:57:04.761Z,99401.78
2022-12-23T14:59:51.350Z,99401.41
2022-12-23T15:02:35.034Z,99391.78
2022-12-23T15:05:02.133Z,99385.00
2022-12-23T15:07:37.621Z,99389.00
2022-12-23T15:10:09.346Z,99386.19
2022-12-23T15:12:41.960Z,99385.81
2022-12-23T15:15:18.901Z,99373.81
2022-12-23T15:17:45.889Z,99373.41
2022-12-23T15:20:15.797Z,99380.59
2022-12-23T15:22:44.273Z,99361.44
2022-12-23T15:25:31.817Z,99367.03
2022-12-23T15:28:02.165Z,99373.78
2022-12-23T15:30:36.493Z,99382.59
2022-12-23T15:33:27.940Z,99363.81
2022-12-23T15:35:53.891Z,99347.84
2022-12-23T15:38:22.187Z,99338.66
2022-12-23T15:41:13.141Z,99349.41
2022-12-23T15:43:43.457Z,99341.03
2022-12-23T15:46:25.066Z,99341.41
2022-12-23T15:48:53.668Z,99341.41
2022-12-23T15:52:07.237Z,99339.41
2022-12-23T15:54:29.831Z,99333.84
2022-12-23T15:56:58.574Z,99325.84
2022-12-23T15:59:29.467Z,99328.22
2022-12-23T16:01:56.151Z,99327.44
2022-12-23T16:04:26.989Z,99318.66
2022-12-23T16:06:54.342Z,99312.66
2022-12-23T16:09:20.650Z,99310.25
2022-12-23T16:12:00.397Z,99316.22
2022-12-23T16:14:36.050Z,99326.19
2022-12-23T16:17:08.182Z,99317.41
2022-12-23T16:19:50.823Z,99310.22
2022-12-23T16:22:20.416Z,99298.66
2022-12-23T16:24:50.536Z,99303.84
2022-12-23T16:27:19.490Z,99306.25
2022-12-23T16:29:48.428Z,99316.22
2022-12-23T16:32:19.163Z,99318.59
2022-12-23T16:34:49.872Z,99306.63
2022-12-23T16:37:16.497Z,99304.63
2022-12-23T16:39:42.902Z,99293.88
2022-12-23T16:42:09.502Z,99301.06
2022-12-23T16:44:35.901Z,99296.69
2022-12-23T16:47:09.192Z,99296.31
2022-12-23T16:49:37.414Z,99309.47
2022-12-23T16:52:06.961Z,99303.88
2022-12-23T16:54:34.621Z,99303.91
2022-12-23T16:57:01.035Z,99306.28
2022-12-23T16:59:27.443Z,99308.28
2022-12-23T17:01:58.177Z,99306.69
2022-12-23T17:04:29.341Z,99307.50
2022-12-23T17:06:55.686Z,99306.69
2022-12-23T17:09:22.129Z,99306.72
2022-12-23T17:11:53.103Z,99316.69
2022-12-23T17:14:25.766Z,99316.69
2022-12-23T17:16:52.647Z,99323.09
2022-12-23T17:19:28.767Z,99327.06
2022-12-23T17:22:01.226Z,99315.91
2022-12-23T17:24:27.998Z,99325.47
2022-12-23T17:26:56.585Z,99317.88
2022-12-23T17:29:23.223Z,99323.84
2022-12-23T17:31:50.501Z,99316.22
2022-12-23T17:34:20.034Z,99304.25
2022-12-23T17:36:50.246Z,99315.06
2022-12-23T17:39:17.544Z,99313.81
2022-12-23T17:41:44.090Z,99311.81
2022-12-23T17:44:13.836Z,99331.34
2022-12-23T17:46:40.248Z,99322.53
2022-12-23T17:49:06.609Z,99344.13
2022-12-23T17:51:33.235Z,99352.50
2022-12-23T17:53:59.971Z,99347.69
2022-12-23T17:56:30.681Z,99356.09
2022-12-23T17:58:57.033Z,99349.69
2022-12-23T18:01:32.398Z,99342.88
2022-12-23T18:04:00.456Z,99355.66
2022-12-23T18:06:29.067Z,99352.84
2022-12-23T18:08:57.289Z,99361.63
2022-12-23T18:11:32.861Z,99362.47
2022-12-23T18:13:59.494Z,99358.84
2022-12-23T18:16:26.949Z,99366.06
2022-12-23T18:18:53.969Z,99374.06
2022-12-23T18:21:23.663Z,99382.47
2022-12-23T18:23:51.188Z,99393.66
2022-12-23T18:26:17.847Z,99380.03
2022-12-23T18:28:44.451Z,99384.41
2022-12-23T18:31:17.287Z,99384.41
2022-12-23T18:33:43.819Z,99396.41
2022-12-23T18:36:22.831Z,99393.19
2022-12-23T18:38:49.464Z,99408.41
2022-12-23T18:41:15.948Z,99406.00
2022-12-23T18:43:42.562Z,99408.78
2022-12-23T18:46:08.919Z,99409.22
2022-12-23T18:48:35.329Z,99405.59
2022-12-23T18:51:01.883Z,99412.81
2022-12-23T18:53:28.269Z,99413.66
2022-12-23T18:55:55.019Z,99420.03
2022-12-23T18:58:22.206Z,99422.47
2022-12-23T19:00:50.250Z,99417.25
2022-12-23T19:03:20.826Z,99432.47
2022-12-23T19:05:48.744Z,99437.69
2022-12-23T19:08:20.332Z,99432.09
2022-12-23T19:10:51.375Z,99431.25
2022-12-23T19:13:18.722Z,99435.69
2022-12-23T19:15:48.144Z,99442.47
2022-12-23T19:18:16.262Z,99436.06
2022-12-23T19:20:44.077Z,99440.06
2022-12-23T19:23:11.798Z,99448.47
2022-12-23T19:25:42.434Z,99471.31
2022-12-23T19:28:09.655Z,99463.69
2022-12-23T19:30:36.179Z,99474.50
2022-12-23T19:33:02.761Z,99473.69
2022-12-23T19:35:29.653Z,99474.09
2022-12-23T19:37:56.175Z,99489.31
2022-12-23T19:40:22.712Z,99480.94
2022-12-23T19:42:49.104Z,99469.31
2022-12-23T19:45:17.222Z,99493.72
2022-12-23T19:47:43.640Z,99494.13
2022-12-23T19:50:11.405Z,99493.75
2022-12-23T19:52:37.874Z,99497.34
2022-12-23T19:55:04.844Z,99504.13
2022-12-23T19:57:31.447Z,99500.94
2022-12-23T19:59:57.892Z,99499.34
2022-12-23T20:02:24.531Z,99504.53
2022-12-23T20:04:51.036Z,99511.34
2022-12-23T20:07:17.437Z,99512.16
2022-12-23T20:09:43.820Z,99527.34
2022-12-23T20:12:10.831Z,99531.75
2022-12-23T20:14:37.212Z,99518.13
2022-12-23T20:17:03.686Z,99519.34
2022-12-23T20:19:30.083Z,99530.13
2022-12-23T20:21:56.620Z,99529.34
2022-12-23T20:24:23.059Z,99530.94
2022-12-23T20:26:49.560Z,99533.75
2022-12-23T20:29:16.189Z,99544.94
2022-12-23T20:31:42.756Z,99546.94
2022-12-23T20:34:15.844Z,99552.97
2022-12-23T20:36:42.406Z,99554.16
2022-12-23T20:39:09.161Z,99559.34
2022-12-23T20:41:35.723Z,99557.75
2022-12-23T20:44:33.147Z,99565.75
2022-12-23T20:46:48.667Z,99566.16
2022-12-23T20:49:15.100Z,99567.78
2022-12-23T20:51:42.586Z,99574.56
2022-12-23T20:54:09.372Z,99584.16
2022-12-23T20:56:36.057Z,99579.78
2022-12-23T20:59:03.789Z,99576.16
2022-12-23T21:01:35.865Z,99583.78
2022-12-23T21:04:15.786Z,99596.56
2022-12-23T21:06:43.615Z,99594.97
2022-12-23T21:09:12.863Z,99600.97
2022-12-23T21:11:43.021Z,99600.59
2022-12-23T21:14:10.441Z,99604.97
2022-12-23T21:16:37.861Z,99608.56
2022-12-23T21:19:07.559Z,99622.19
2022-12-23T21:21:34.611Z,99618.19
2022-12-23T21:24:04.114Z,99626.59
2022-12-23T21:26:33.113Z,99631.38
2022-12-23T21:29:00.471Z,99630.19
2022-12-23T21:31:28.885Z,99637.81
2022-12-23T21:33:55.425Z,99640.97
2022-12-23T21:36:24.318Z,99643.81
2022-12-23T21:38:51.313Z,99655.00
2022-12-23T21:41:20.924Z,99645.00
2022-12-23T21:43:48.028Z,99642.19
2022-12-23T21:46:16.937Z,99646.16
2022-12-23T21:48:44.182Z,99646.59
2022-12-23T21:51:21.017Z,99644.97
2022-12-23T21:53:50.500Z,99651.00
2022-12-23T21:56:19.980Z,99662.59
2022-12-23T21:58:46.959Z,99661.00
2022-12-23T22:01:19.221Z,99660.59
2022-12-23T22:03:47.706Z,99660.59
2022-12-23T22:06:23.244Z,99663.41
2022-12-23T22:08:51.610Z,99674.97
2022-12-23T22:11:38.130Z,99678.97
2022-12-23T22:14:07.519Z,99685.75
2022-12-23T22:16:35.125Z,99694.56
2022-12-23T22:19:02.192Z,99698.97
2022-12-23T22:21:31.085Z,99705.34
2022-12-23T22:23:57.831Z,99702.97
2022-12-23T22:26:27.573Z,99708.16
2022-12-23T22:28:55.864Z,99708.16
2022-12-23T22:31:44.935Z,99712.56
2022-12-23T22:34:17.438Z,99708.94
2022-12-23T22:36:43.957Z,99712.16
2022-12-23T22:39:17.757Z,99721.38
2022-12-23T22:41:46.404Z,99720.97
2022-12-23T22:44:16.257Z,99713.75
2022-12-23T22:46:42.765Z,99730.94
2022-12-23T22:49:13.681Z,99735.75
2022-12-23T22:51:41.487Z,99746.97
2022-12-23T22:54:08.961Z,99749.38
2022-12-23T22:56:35.330Z,99751.34
2022-12-23T22:59:01.655Z,99758.19
2022-12-23T23:01:31.197Z,99754.16
2022-12-23T23:04:01.010Z,99755.78
2022-12-23T23:06:38.407Z,99770.56
2022-12-23T23:09:11.466Z,99765.34
2022-12-23T23:11:38.172Z,99779.78
2022-12-23T23:14:04.641Z,99774.59
2022-12-23T23:16:31.534Z,99788.59
2022-12-23T23:18:58.925Z,99788.97
2022-12-23T23:21:25.843Z,99788.16
2022-12-23T23:23:52.324Z,99795.75
2022-12-23T23:26:20.223Z,99797.34
2022-12-23T23:28:47.345Z,99802.94
2022-12-23T23:34:00.196Z,99808.50
2022-12-23T23:36:26.706Z,99808.88
2022-12-23T23:38:53.256Z,99809.66
2022-12-23T23:41:23.204Z,99808.03
2022-12-23T23:43:50.536Z,99811.59
2022-12-23T23:46:17.020Z,99814.38
2022-12-23T23:48:43.381Z,99803.16
2022-12-23T23:51:09.925Z,99809.97
2022-12-23T23:53:36.334Z,99821.56
2022-12-23T23:56:08.054Z,99826.34
2022-12-23T23:58:36.166Z,99823.16
